createdAt,value
2016-12-23T00:00:57.941Z,0
2016-12-23T00:01:57.697Z,0
2016-12-23T00:02:57.822Z,0
2016-12-23T00:03:58.647Z,0
2016-12-23T00:04:57.869Z,0
2016-12-23T00:05:58.306Z,0
2016-12-23T00:06:58.280Z,0
2016-12-23T00:07:57.870Z,0
2016-12-23T00:08:57.379Z,0
2016-12-23T00:09:58.237Z,0
2016-12-23T00:10:58.332Z,0
2016-12-23T00:11:58.232Z,0
2016-12-23T00:12:58.188Z,0
2016-12-23T00:13:58.293Z,0
2016-12-23T00:14:57.988Z,0
2016-12-23T00:15:57.737Z,0
2016-12-23T00:16:58.086Z,0
2016-12-23T00:17:57.894Z,0
2016-12-23T00:18:57.711Z,0
2016-12-23T00:19:57.976Z,0
2016-12-23T00:20:58.171Z,0
2016-12-23T00:21:58.465Z,0
2016-12-23T00:22:59.352Z,0
2016-12-23T00:23:59.230Z,0
2016-12-23T00:24:58.186Z,0
2016-12-23T00:25:58.666Z,0
2016-12-23T00:26:58.016Z,0
2016-12-23T00:27:57.857Z,0
2016-12-23T00:28:58.293Z,0
2016-12-23T00:29:59.036Z,0
2016-12-23T00:30:58.987Z,0
2016-12-23T00:31:57.865Z,0
2016-12-23T00:32:58.886Z,0
2016-12-23T00:33:58.508Z,0
2016-12-23T00:34:59.356Z,0
2016-12-23T00:35:58.919Z,0
2016-12-23T00:36:58.555Z,0
2016-12-23T00:37:58.340Z,0
2016-12-23T00:38:58.562Z,0
2016-12-23T00:39:58.411Z,0
2016-12-23T00:40:58.536Z,0
2016-12-23T00:41:58.250Z,0
2016-12-23T00:42:58.464Z,0
2016-12-23T00:43:57.805Z,0
2016-12-23T00:44:58.209Z,0
2016-12-23T00:45:58.215Z,0
2016-12-23T00:46:57.886Z,0
2016-12-23T00:47:58.238Z,0
2016-12-23T00:48:58.361Z,0
2016-12-23T00:49:58.911Z,0
2016-12-23T00:50:57.935Z,0
2016-12-23T00:51:58.598Z,0
2016-12-23T00:52:58.798Z,0
2016-12-23T00:53:59.217Z,0
2016-12-23T00:54:58.187Z,0
2016-12-23T00:55:58.247Z,0
2016-12-23T00:56:58.120Z,0
2016-12-23T00:57:59.091Z,0
2016-12-23T00:58:59.375Z,0
2016-12-23T00:59:58.314Z,0
2016-12-23T01:00:57.887Z,0
2016-12-23T01:01:57.928Z,0
2016-12-23T01:02:59.252Z,0
2016-12-23T01:03:58.421Z,0
2016-12-23T01:04:59.151Z,0
2016-12-23T01:05:59.785Z,0
2016-12-23T01:06:59.049Z,0
2016-12-23T01:07:59.424Z,0
2016-12-23T01:08:58.610Z,0
2016-12-23T01:09:59.031Z,0
2016-12-23T01:10:59.727Z,0
2016-12-23T01:11:59.435Z,0
2016-12-23T01:12:58.982Z,0
2016-12-23T01:13:59.718Z,0
2016-12-23T01:14:58.116Z,0
2016-12-23T01:15:58.620Z,0
2016-12-23T01:16:59.467Z,0
2016-12-23T01:17:59.927Z,0
2016-12-23T01:18:58.607Z,0
2016-12-23T01:19:59.129Z,0
2016-12-23T01:20:58.923Z,0
2016-12-23T01:21:59.748Z,0
2016-12-23T01:22:59.196Z,0
2016-12-23T01:23:59.199Z,0
2016-12-23T01:24:59.322Z,0
2016-12-23T01:25:59.259Z,0
2016-12-23T01:26:59.316Z,0
2016-12-23T01:27:58.986Z,0
2016-12-23T01:28:59.313Z,0
2016-12-23T01:29:59.140Z,0
2016-12-23T01:30:59.660Z,0
2016-12-23T01:31:59.059Z,0
2016-12-23T01:32:59.224Z,0
2016-12-23T01:33:59.297Z,0
2016-12-23T01:34:59.427Z,0
2016-12-23T01:35:59.486Z,0
2016-12-23T01:36:58.540Z,0
2016-12-23T01:37:59.317Z,0
2016-12-23T01:38:59.689Z,0
2016-12-23T01:39:59.578Z,0
2016-12-23T01:40:59.402Z,0
2016-12-23T01:41:59.368Z,0
2016-12-23T01:42:58.861Z,0
2016-12-23T01:43:59.796Z,0
2016-12-23T01:44:59.736Z,0
2016-12-23T01:45:58.648Z,0
2016-12-23T01:46:59.375Z,0
2016-12-23T01:47:59.206Z,0
2016-12-23T01:48:59.978Z,0
2016-12-23T01:49:59.369Z,0
2016-12-23T01:50:59.129Z,0
2016-12-23T01:51:59.115Z,0
2016-12-23T01:52:58.824Z,0
2016-12-23T01:53:59.133Z,0
2016-12-23T01:54:58.957Z,0
2016-12-23T01:55:59.472Z,0
2016-12-23T01:56:59.640Z,0
2016-12-23T01:57:59.448Z,0
2016-12-23T01:58:59.711Z,0
2016-12-23T01:59:59.417Z,0
2016-12-23T02:00:59.066Z,0
2016-12-23T02:01:59.369Z,0
2016-12-23T02:02:59.996Z,0
2016-12-23T02:04:00.568Z,0
2016-12-23T02:04:59.819Z,0
2016-12-23T02:05:59.161Z,0
2016-12-23T02:06:59.599Z,0
2016-12-23T02:07:59.551Z,0
2016-12-23T02:08:59.544Z,0
2016-12-23T02:10:00.197Z,0
2016-12-23T02:10:59.459Z,0
2016-12-23T02:11:59.543Z,0
2016-12-23T02:13:00.171Z,0
2016-12-23T02:13:59.515Z,0
2016-12-23T02:14:59.922Z,0
2016-12-23T02:15:59.441Z,0
2016-12-23T02:16:59.447Z,0
2016-12-23T02:17:59.881Z,0
2016-12-23T02:18:59.983Z,0
2016-12-23T02:19:59.164Z,0
2016-12-23T02:20:59.281Z,0
2016-12-23T02:22:00.226Z,0
2016-12-23T02:22:59.822Z,0
2016-12-23T02:23:59.993Z,0
2016-12-23T02:24:59.733Z,0
2016-12-23T02:25:59.166Z,0
2016-12-23T02:27:00.718Z,0
2016-12-23T02:28:00.201Z,0
2016-12-23T02:28:59.135Z,0
2016-12-23T02:29:59.565Z,0
2016-12-23T02:31:00.106Z,0
2016-12-23T02:32:00.056Z,0
2016-12-23T02:32:59.739Z,0
2016-12-23T02:34:00.349Z,0
2016-12-23T02:34:59.934Z,0
2016-12-23T02:35:59.691Z,0
2016-12-23T02:37:00.235Z,0
2016-12-23T02:37:59.369Z,0
2016-12-23T02:39:00.543Z,0
2016-12-23T02:40:00.714Z,0
2016-12-23T02:41:00.020Z,0
2016-12-23T02:41:59.973Z,0
2016-12-23T02:43:00.923Z,0
2016-12-23T02:43:59.798Z,0
2016-12-23T02:45:00.465Z,0
2016-12-23T02:45:59.422Z,0
2016-12-23T02:47:00.115Z,0
2016-12-23T02:47:59.777Z,0
2016-12-23T02:48:59.970Z,0
2016-12-23T02:49:59.932Z,0
2016-12-23T02:51:00.120Z,0
2016-12-23T02:52:00.465Z,0
2016-12-23T02:53:00.129Z,0
2016-12-23T02:54:00.541Z,0
2016-12-23T02:54:59.845Z,0
2016-12-23T02:55:59.680Z,0
2016-12-23T02:57:00.077Z,0
2016-12-23T02:57:59.778Z,0
2016-12-23T02:59:00.611Z,0
2016-12-23T03:00:00.539Z,0
2016-12-23T03:01:00.415Z,0
2016-12-23T03:02:00.648Z,0
2016-12-23T03:03:00.037Z,0
2016-12-23T03:03:59.957Z,0
2016-12-23T03:04:59.952Z,0
2016-12-23T03:05:59.821Z,0
2016-12-23T03:07:00.269Z,0
2016-12-23T03:08:00.068Z,0
2016-12-23T03:09:00.076Z,0
2016-12-23T03:09:59.911Z,0
2016-12-23T03:11:01.126Z,0
2016-12-23T03:11:59.881Z,0
2016-12-23T03:13:00.691Z,0
2016-12-23T03:14:00.043Z,0
2016-12-23T03:15:00.240Z,0
2016-12-23T03:16:00.292Z,0
2016-12-23T03:17:00.632Z,0
2016-12-23T03:18:06.215Z,0
2016-12-23T03:19:00.189Z,0
2016-12-23T03:20:00.479Z,0
2016-12-23T03:21:00.572Z,0
2016-12-23T03:22:00.479Z,0
2016-12-23T03:23:01.004Z,0
2016-12-23T03:24:00.756Z,0
2016-12-23T03:25:00.701Z,0
2016-12-23T03:26:00.319Z,0
2016-12-23T03:27:00.244Z,0
2016-12-23T03:28:00.337Z,0
2016-12-23T03:29:00.465Z,0
2016-12-23T03:30:00.702Z,0
2016-12-23T03:31:00.324Z,0
2016-12-23T03:31:59.959Z,0
2016-12-23T03:33:01.249Z,0
2016-12-23T03:34:00.665Z,0
2016-12-23T03:35:00.249Z,0
2016-12-23T03:36:00.711Z,0
2016-12-23T03:37:01.334Z,0
2016-12-23T03:38:00.179Z,0
2016-12-23T03:39:01.164Z,0
2016-12-23T03:40:00.173Z,0
2016-12-23T03:41:00.232Z,0
2016-12-23T03:42:01.440Z,0
2016-12-23T03:43:00.203Z,0
2016-12-23T03:44:00.555Z,0
2016-12-23T03:45:00.569Z,0
2016-12-23T03:46:00.344Z,0
2016-12-23T03:47:00.922Z,0
2016-12-23T03:48:00.816Z,0
2016-12-23T03:49:00.713Z,0
2016-12-23T03:50:00.909Z,0
2016-12-23T03:51:00.513Z,0
2016-12-23T03:52:00.092Z,0
2016-12-23T03:53:01.356Z,0
2016-12-23T03:54:00.723Z,0
2016-12-23T03:55:00.975Z,0
2016-12-23T03:56:00.740Z,0
2016-12-23T03:57:00.696Z,0
2016-12-23T03:58:00.589Z,0
2016-12-23T03:59:01.590Z,0
2016-12-23T04:00:00.902Z,0
2016-12-23T04:01:01.697Z,0
2016-12-23T04:02:02.080Z,0
2016-12-23T04:03:02.713Z,0
2016-12-23T04:04:00.568Z,0
2016-12-23T04:05:00.605Z,0
2016-12-23T04:06:00.532Z,0
2016-12-23T04:07:01.424Z,0
2016-12-23T04:08:01.117Z,0
2016-12-23T04:09:01.389Z,0
2016-12-23T04:10:01.046Z,0
2016-12-23T04:11:01.824Z,0
2016-12-23T04:12:01.411Z,0
2016-12-23T04:13:02.201Z,0
2016-12-23T04:14:01.351Z,0
2016-12-23T04:15:01.756Z,0
2016-12-23T04:16:02.050Z,0
2016-12-23T04:17:01.268Z,0
2016-12-23T04:18:01.204Z,0
2016-12-23T04:19:01.340Z,0
2016-12-23T04:20:01.356Z,0
2016-12-23T04:21:01.918Z,0
2016-12-23T04:22:02.065Z,0
2016-12-23T04:23:01.859Z,0
2016-12-23T04:24:02.252Z,0
2016-12-23T04:25:01.755Z,0
2016-12-23T04:26:01.718Z,0
2016-12-23T04:27:01.375Z,0
2016-12-23T04:28:01.708Z,0
2016-12-23T04:29:02.168Z,0
2016-12-23T04:30:00.975Z,0
2016-12-23T04:31:01.172Z,0
2016-12-23T04:32:00.806Z,0
2016-12-23T04:33:01.367Z,0
2016-12-23T04:34:01.889Z,0
2016-12-23T04:35:02.011Z,0
2016-12-23T04:36:02.727Z,0
2016-12-23T04:37:01.341Z,0
2016-12-23T04:38:02.254Z,0
2016-12-23T04:39:01.690Z,0
2016-12-23T04:40:01.863Z,0
2016-12-23T04:41:01.951Z,0
2016-12-23T04:42:00.852Z,0
2016-12-23T04:43:01.874Z,0
2016-12-23T04:44:01.639Z,0
2016-12-23T04:45:01.400Z,0
2016-12-23T04:46:01.517Z,0
2016-12-23T04:47:01.739Z,0
2016-12-23T04:48:01.875Z,0
2016-12-23T04:49:01.570Z,0
2016-12-23T04:50:01.874Z,0
2016-12-23T04:51:01.613Z,0
2016-12-23T04:52:02.638Z,0
2016-12-23T04:53:01.410Z,0
2016-12-23T04:54:02.006Z,0
2016-12-23T04:55:02.962Z,0
2016-12-23T04:56:01.194Z,0
2016-12-23T04:57:01.679Z,0
2016-12-23T04:58:01.705Z,0
2016-12-23T04:59:02.212Z,0
2016-12-23T05:00:01.757Z,0
2016-12-23T05:01:01.713Z,0
2016-12-23T05:02:01.493Z,0
2016-12-23T05:03:01.485Z,0
2016-12-23T05:04:01.645Z,0
2016-12-23T05:05:02.130Z,0
2016-12-23T05:06:01.377Z,0
2016-12-23T05:07:02.450Z,0
2016-12-23T05:08:01.867Z,0
2016-12-23T05:09:02.437Z,0
2016-12-23T05:10:02.367Z,0
2016-12-23T05:11:02.988Z,0
2016-12-23T05:12:02.294Z,0
2016-12-23T05:13:02.341Z,0
2016-12-23T05:14:02.881Z,0
2016-12-23T05:15:02.010Z,0
2016-12-23T05:16:03.260Z,0
2016-12-23T05:17:02.497Z,0
2016-12-23T05:18:02.269Z,0
2016-12-23T05:19:02.414Z,0
2016-12-23T05:20:02.174Z,0
2016-12-23T05:21:02.710Z,0
2016-12-23T05:22:03.649Z,0
2016-12-23T05:23:02.088Z,0
2016-12-23T05:24:02.660Z,0
2016-12-23T05:25:03.010Z,0
2016-12-23T05:26:02.219Z,0
2016-12-23T05:27:02.420Z,0
2016-12-23T05:28:03.733Z,0
2016-12-23T05:29:02.378Z,0
2016-12-23T05:30:03.540Z,0
2016-12-23T05:31:02.944Z,0
2016-12-23T05:32:02.883Z,0
2016-12-23T05:33:02.376Z,0
2016-12-23T05:34:02.891Z,0
2016-12-23T05:35:02.120Z,0
2016-12-23T05:36:02.957Z,0
2016-12-23T05:37:03.011Z,0
2016-12-23T05:38:01.918Z,0
2016-12-23T05:39:02.834Z,0
2016-12-23T05:40:02.368Z,0
2016-12-23T05:41:02.759Z,0
2016-12-23T05:42:02.295Z,0
2016-12-23T05:43:02.527Z,0
2016-12-23T05:44:02.289Z,0
2016-12-23T05:45:04.447Z,0
2016-12-23T05:46:02.451Z,0
2016-12-23T05:47:03.039Z,0
2016-12-23T05:48:02.337Z,0
2016-12-23T05:49:02.781Z,0
2016-12-23T05:50:02.842Z,0
2016-12-23T05:51:03.161Z,0
2016-12-23T05:52:02.350Z,0
2016-12-23T05:53:04.172Z,0
2016-12-23T05:54:02.576Z,0
2016-12-23T05:55:02.998Z,0
2016-12-23T05:56:02.774Z,0
2016-12-23T05:57:04.563Z,0
2016-12-23T05:58:02.758Z,0
2016-12-23T05:59:02.152Z,0
2016-12-23T06:00:02.598Z,0
2016-12-23T06:01:03.331Z,0
2016-12-23T06:02:04.183Z,0
2016-12-23T06:03:03.779Z,0
2016-12-23T06:04:03.456Z,0
2016-12-23T06:05:02.144Z,0
2016-12-23T06:06:02.276Z,0
2016-12-23T06:07:01.729Z,0
2016-12-23T06:08:02.761Z,0
2016-12-23T06:09:03.283Z,0
2016-12-23T06:10:02.388Z,0
2016-12-23T06:11:03.816Z,0
2016-12-23T06:12:03.584Z,0
2016-12-23T06:13:02.600Z,0
2016-12-23T06:14:03.527Z,0
2016-12-23T06:15:03.182Z,0
2016-12-23T06:16:03.740Z,0
2016-12-23T06:17:02.545Z,0
2016-12-23T06:18:02.642Z,0
2016-12-23T06:19:02.746Z,0
2016-12-23T06:20:02.297Z,0
2016-12-23T06:21:03.343Z,0
2016-12-23T06:22:02.837Z,0
2016-12-23T06:23:03.095Z,0
2016-12-23T06:24:02.819Z,0
2016-12-23T06:25:02.597Z,0
2016-12-23T06:26:03.009Z,0
2016-12-23T06:27:03.696Z,0
2016-12-23T06:28:02.643Z,0
2016-12-23T06:29:02.808Z,0
2016-12-23T06:30:03.495Z,0
2016-12-23T06:31:03.441Z,0
2016-12-23T06:32:03.376Z,0
2016-12-23T06:33:03.936Z,0
2016-12-23T06:34:03.359Z,0
2016-12-23T06:35:02.875Z,0
2016-12-23T06:36:03.338Z,0
2016-12-23T06:37:02.864Z,0
2016-12-23T06:38:03.284Z,0
2016-12-23T06:39:04.484Z,0
2016-12-23T06:40:02.882Z,0
2016-12-23T06:41:03.573Z,0
2016-12-23T06:42:03.715Z,0
2016-12-23T06:43:03.296Z,0
2016-12-23T06:44:03.626Z,0
2016-12-23T06:45:02.329Z,0
2016-12-23T06:46:02.602Z,4
2016-12-23T06:47:03.795Z,0
2016-12-23T06:48:03.387Z,0
2016-12-23T06:49:03.304Z,4
2016-12-23T06:50:04.558Z,4
2016-12-23T06:51:02.970Z,0
2016-12-23T06:52:03.752Z,4
2016-12-23T06:53:03.333Z,4
2016-12-23T06:54:04.124Z,4
2016-12-23T06:55:03.663Z,4
2016-12-23T06:56:02.700Z,8
2016-12-23T06:57:03.369Z,4
2016-12-23T06:58:03.641Z,4
2016-12-23T06:59:02.710Z,8
2016-12-23T07:00:03.512Z,4
2016-12-23T07:01:04.299Z,8
2016-12-23T07:02:04.317Z,8
2016-12-23T07:03:03.458Z,8
2016-12-23T07:04:03.706Z,8
2016-12-23T07:05:03.223Z,16
2016-12-23T07:06:04.152Z,16
2016-12-23T07:07:03.604Z,16
2016-12-23T07:08:04.192Z,20
2016-12-23T07:09:04.105Z,20
2016-12-23T07:10:04.629Z,24
2016-12-23T07:11:03.347Z,28
2016-12-23T07:12:04.927Z,28
2016-12-23T07:13:04.511Z,32
2016-12-23T07:14:04.010Z,36
2016-12-23T07:15:04.812Z,40
2016-12-23T07:16:04.568Z,48
2016-12-23T07:17:04.076Z,52
2016-12-23T07:18:03.913Z,60
2016-12-23T07:19:03.316Z,68
2016-12-23T07:20:03.255Z,80
2016-12-23T07:21:04.071Z,88
2016-12-23T07:22:03.853Z,100
2016-12-23T07:23:03.767Z,108
2016-12-23T07:24:03.310Z,128
2016-12-23T07:25:04.609Z,148
2016-12-23T07:26:03.430Z,164
2016-12-23T07:27:04.198Z,184
2016-12-23T07:28:04.387Z,200
2016-12-23T07:29:03.771Z,216
2016-12-23T07:30:03.470Z,224
2016-12-23T07:31:04.048Z,232
2016-12-23T07:32:03.894Z,256
2016-12-23T07:33:03.451Z,288
2016-12-23T07:34:03.659Z,324
2016-12-23T07:35:03.892Z,364
2016-12-23T07:36:03.076Z,424
2016-12-23T07:37:03.290Z,492
2016-12-23T07:38:03.239Z,556
2016-12-23T07:39:03.405Z,624
2016-12-23T07:40:03.392Z,656
2016-12-23T07:41:03.771Z,660
2016-12-23T07:42:03.612Z,660
2016-12-23T07:43:03.755Z,668
2016-12-23T07:44:03.608Z,700
2016-12-23T07:45:03.623Z,736
2016-12-23T07:46:04.512Z,736
2016-12-23T07:47:03.405Z,740
2016-12-23T07:48:03.929Z,748
2016-12-23T07:49:04.663Z,748
2016-12-23T07:50:04.646Z,756
2016-12-23T07:51:03.824Z,744
2016-12-23T07:52:05.635Z,760
2016-12-23T07:53:03.316Z,796
2016-12-23T07:54:04.237Z,836
2016-12-23T07:55:06.090Z,832
2016-12-23T07:56:04.997Z,872
2016-12-23T07:57:03.856Z,892
2016-12-23T07:58:03.947Z,928
2016-12-23T07:59:03.976Z,932
2016-12-23T08:00:04.042Z,916
2016-12-23T08:01:04.392Z,884
2016-12-23T08:02:04.745Z,852
2016-12-23T08:03:04.676Z,840
2016-12-23T08:04:05.343Z,836
2016-12-23T08:05:04.349Z,848
2016-12-23T08:06:04.231Z,912
2016-12-23T08:07:04.299Z,984
2016-12-23T08:08:04.680Z,1012
2016-12-23T08:09:04.343Z,1016
2016-12-23T08:10:03.535Z,1004
2016-12-23T08:11:03.981Z,980
2016-12-23T08:12:03.936Z,1000
2016-12-23T08:13:04.195Z,1012
2016-12-23T08:14:03.917Z,1044
2016-12-23T08:15:04.241Z,1044
2016-12-23T08:16:04.288Z,1068
2016-12-23T08:17:04.839Z,1092
2016-12-23T08:18:03.682Z,1064
2016-12-23T08:19:04.427Z,1044
2016-12-23T08:20:04.702Z,1060
2016-12-23T08:21:04.319Z,1064
2016-12-23T08:22:04.016Z,1032
2016-12-23T08:23:04.609Z,944
2016-12-23T08:24:04.285Z,912
2016-12-23T08:25:03.928Z,896
2016-12-23T08:26:04.246Z,888
2016-12-23T08:27:03.974Z,924
2016-12-23T08:28:04.633Z,952
2016-12-23T08:29:05.129Z,992
2016-12-23T08:30:04.314Z,1076
2016-12-23T08:31:04.709Z,1168
2016-12-23T08:32:04.809Z,1224
2016-12-23T08:33:03.803Z,1276
2016-12-23T08:34:04.142Z,1324
2016-12-23T08:35:04.551Z,1324
2016-12-23T08:36:04.048Z,1356
2016-12-23T08:37:04.786Z,1396
2016-12-23T08:38:04.734Z,1412
2016-12-23T08:39:04.426Z,1468
2016-12-23T08:40:04.431Z,1556
2016-12-23T08:41:04.359Z,1700
2016-12-23T08:42:04.210Z,1908
2016-12-23T08:43:05.081Z,2140
2016-12-23T08:44:05.075Z,2260
2016-12-23T08:45:05.279Z,2328
2016-12-23T08:46:04.537Z,2348
2016-12-23T08:47:03.981Z,2240
2016-12-23T08:48:04.771Z,2188
2016-12-23T08:49:04.988Z,2176
2016-12-23T08:50:04.533Z,2228
2016-12-23T08:51:05.372Z,2420
2016-12-23T08:52:05.337Z,2544
2016-12-23T08:53:04.761Z,2572
2016-12-23T08:54:04.943Z,2696
2016-12-23T08:55:05.041Z,2672
2016-12-23T08:56:05.990Z,2584
2016-12-23T08:57:04.502Z,2532
2016-12-23T08:58:04.325Z,2380
2016-12-23T08:59:05.034Z,2064
2016-12-23T09:00:05.357Z,2172
2016-12-23T09:01:04.771Z,2232
2016-12-23T09:02:05.078Z,2380
2016-12-23T09:03:07.191Z,2680
2016-12-23T09:04:05.502Z,2940
2016-12-23T09:05:05.217Z,2968
2016-12-23T09:06:05.066Z,2680
2016-12-23T09:07:04.496Z,2944
2016-12-23T09:08:04.677Z,3132
2016-12-23T09:09:05.777Z,3124
2016-12-23T09:10:05.164Z,3052
2016-12-23T09:11:04.746Z,2972
2016-12-23T09:12:04.863Z,3012
2016-12-23T09:13:06.702Z,3136
2016-12-23T09:14:05.613Z,3108
2016-12-23T09:15:04.798Z,3196
2016-12-23T09:16:05.359Z,3404
2016-12-23T09:17:05.324Z,3736
2016-12-23T09:18:06.027Z,3900
2016-12-23T09:19:05.120Z,3664
2016-12-23T09:20:05.642Z,3104
2016-12-23T09:21:04.864Z,3096
2016-12-23T09:22:05.710Z,3572
2016-12-23T09:23:06.171Z,3732
2016-12-23T09:24:05.555Z,3796
2016-12-23T09:25:04.992Z,3892
2016-12-23T09:26:05.803Z,3664
2016-12-23T09:27:04.989Z,3460
2016-12-23T09:28:05.560Z,3516
2016-12-23T09:29:05.032Z,3672
2016-12-23T09:30:05.317Z,3660
2016-12-23T09:31:04.882Z,3736
2016-12-23T09:32:05.374Z,3644
2016-12-23T09:33:04.784Z,3612
2016-12-23T09:34:04.969Z,3564
2016-12-23T09:35:05.601Z,3672
2016-12-23T09:36:05.447Z,3764
2016-12-23T09:37:05.153Z,3584
2016-12-23T09:38:12.289Z,3584
2016-12-23T09:39:15.004Z,3420
2016-12-23T09:40:16.128Z,3616
2016-12-23T09:41:11.188Z,3572
2016-12-23T09:42:10.977Z,3500
2016-12-23T09:43:11.884Z,3572
2016-12-23T09:44:12.043Z,3728
2016-12-23T09:45:10.554Z,3860
2016-12-23T09:46:13.287Z,3796
2016-12-23T09:47:09.426Z,3856
2016-12-23T09:48:13.024Z,4384
2016-12-23T09:49:13.420Z,4444
2016-12-23T09:52:11.360Z,4088
2016-12-23T09:53:09.148Z,4292
2016-12-23T09:54:15.596Z,4232
2016-12-23T09:55:13.770Z,4060
2016-12-23T09:56:15.292Z,3976
2016-12-23T09:57:13.962Z,3868
2016-12-23T09:58:13.380Z,3492
2016-12-23T09:59:11.853Z,3824
2016-12-23T10:00:11.460Z,4048
2016-12-23T10:01:05.973Z,4072
2016-12-23T10:02:07.028Z,4224
2016-12-23T10:03:05.759Z,4280
2016-12-23T10:04:06.479Z,4128
2016-12-23T10:05:06.418Z,4032
2016-12-23T10:06:05.299Z,4304
2016-12-23T10:07:06.085Z,4528
2016-12-23T10:08:05.910Z,3920
2016-12-23T10:09:05.642Z,3952
2016-12-23T10:10:06.427Z,4316
2016-12-23T10:11:06.180Z,4580
2016-12-23T10:12:06.694Z,4516
2016-12-23T10:13:05.850Z,4768
2016-12-23T10:14:05.383Z,5196
2016-12-23T10:15:05.767Z,5572
2016-12-23T10:16:06.109Z,5456
2016-12-23T10:17:06.545Z,5692
2016-12-23T10:18:06.361Z,5872
2016-12-23T10:19:05.204Z,5996
2016-12-23T10:20:06.029Z,5940
2016-12-23T10:21:06.577Z,5832
2016-12-23T10:22:05.618Z,5908
2016-12-23T10:23:06.557Z,5752
2016-12-23T10:24:06.269Z,5736
2016-12-23T10:25:06.072Z,6280
2016-12-23T10:26:07.175Z,6076
2016-12-23T10:27:05.866Z,5924
2016-12-23T10:28:06.235Z,6904
2016-12-23T10:29:06.955Z,7424
2016-12-23T10:30:05.710Z,8096
2016-12-23T10:31:05.667Z,8092
2016-12-23T10:32:07.340Z,7840
2016-12-23T10:33:06.314Z,8176
2016-12-23T10:34:06.174Z,7540
2016-12-23T10:35:06.918Z,5544
2016-12-23T10:36:06.595Z,5104
2016-12-23T10:37:06.854Z,5364
2016-12-23T10:38:07.253Z,5720
2016-12-23T10:39:06.435Z,6584
2016-12-23T10:40:06.522Z,6376
2016-12-23T10:41:07.092Z,6892
2016-12-23T10:42:05.777Z,6180
2016-12-23T10:43:06.494Z,4992
2016-12-23T10:44:06.389Z,4332
2016-12-23T10:45:06.512Z,4572
2016-12-23T10:46:07.022Z,5724
2016-12-23T10:47:06.343Z,6312
2016-12-23T10:48:07.277Z,6688
2016-12-23T10:49:07.795Z,7420
2016-12-23T10:50:07.106Z,6892
2016-12-23T10:51:05.839Z,6360
2016-12-23T10:52:08.977Z,7996
2016-12-23T10:53:06.989Z,8648
2016-12-23T10:54:06.348Z,7940
2016-12-23T10:55:06.736Z,6524
2016-12-23T10:56:07.943Z,6100
2016-12-23T10:57:07.939Z,6360
2016-12-23T10:58:08.147Z,6312
2016-12-23T10:59:07.882Z,7244
2016-12-23T11:00:08.334Z,8836
2016-12-23T11:01:07.712Z,7304
2016-12-23T11:02:07.311Z,6420
2016-12-23T11:03:07.798Z,6200
2016-12-23T11:04:07.535Z,6148
2016-12-23T11:05:06.401Z,5916
2016-12-23T11:06:06.667Z,6160
2016-12-23T11:07:06.068Z,6576
2016-12-23T11:08:06.740Z,5828
2016-12-23T11:09:07.353Z,5664
2016-12-23T11:10:06.346Z,6396
2016-12-23T11:11:06.280Z,6512
2016-12-23T11:12:06.426Z,6680
2016-12-23T11:13:07.171Z,6460
2016-12-23T11:14:06.763Z,6216
2016-12-23T11:15:06.074Z,5500
2016-12-23T11:16:06.687Z,5816
2016-12-23T11:17:07.022Z,8384
2016-12-23T11:18:06.253Z,6464
2016-12-23T11:19:06.707Z,5524
2016-12-23T11:20:06.386Z,6540
2016-12-23T11:21:06.761Z,7284
2016-12-23T11:22:06.291Z,5624
2016-12-23T11:23:06.557Z,5268
2016-12-23T11:24:06.437Z,5788
2016-12-23T11:25:07.338Z,5868
2016-12-23T11:26:06.641Z,6592
2016-12-23T11:27:06.963Z,5668
2016-12-23T11:28:07.710Z,6012
2016-12-23T11:29:06.098Z,6740
2016-12-23T11:30:06.251Z,7200
2016-12-23T11:31:06.588Z,6556
2016-12-23T11:32:06.913Z,6796
2016-12-23T11:33:07.166Z,6892
2016-12-23T11:34:07.359Z,7708
2016-12-23T11:35:06.874Z,8644
2016-12-23T11:36:06.813Z,7084
2016-12-23T11:37:07.726Z,6692
2016-12-23T11:38:06.279Z,6848
2016-12-23T11:39:07.727Z,7224
2016-12-23T11:40:07.526Z,7168
2016-12-23T11:41:06.882Z,7320
2016-12-23T11:42:06.984Z,6956
2016-12-23T11:43:07.491Z,7252
2016-12-23T11:44:06.308Z,7220
2016-12-23T11:45:07.375Z,7444
2016-12-23T11:46:07.816Z,8124
2016-12-23T11:47:07.823Z,8360
2016-12-23T11:48:06.616Z,7988
2016-12-23T11:49:07.084Z,6812
2016-12-23T11:50:06.747Z,7748
2016-12-23T11:51:07.141Z,7040
2016-12-23T11:52:06.623Z,7464
2016-12-23T11:53:06.659Z,7676
2016-12-23T11:54:06.699Z,6680
2016-12-23T11:55:07.329Z,6876
2016-12-23T11:56:06.818Z,6928
2016-12-23T11:57:07.898Z,6688
2016-12-23T11:58:07.658Z,6532
2016-12-23T11:59:07.164Z,6484
2016-12-23T12:00:08.043Z,6652
2016-12-23T12:01:07.283Z,6604
2016-12-23T12:02:07.614Z,6952
2016-12-23T12:03:07.331Z,6980
2016-12-23T12:04:07.138Z,6980
2016-12-23T12:05:07.361Z,7468
2016-12-23T12:06:07.212Z,7672
2016-12-23T12:07:08.071Z,7552
2016-12-23T12:08:07.721Z,6984
2016-12-23T12:09:07.326Z,6024
2016-12-23T12:10:07.843Z,6564
2016-12-23T12:11:07.016Z,6692
2016-12-23T12:12:07.996Z,6612
2016-12-23T12:13:08.464Z,6496
2016-12-23T12:14:07.733Z,6524
2016-12-23T12:15:07.096Z,6328
2016-12-23T12:16:07.986Z,6564
2016-12-23T12:17:08.001Z,6376
2016-12-23T12:18:07.948Z,5980
2016-12-23T12:19:07.842Z,6492
2016-12-23T12:20:07.654Z,6540
2016-12-23T12:21:07.998Z,6552
2016-12-23T12:22:07.017Z,6272
2016-12-23T12:23:08.558Z,6628
2016-12-23T12:24:07.979Z,7348
2016-12-23T12:25:07.813Z,7116
2016-12-23T12:26:07.916Z,7548
2016-12-23T12:27:07.952Z,7980
2016-12-23T12:28:07.087Z,8700
2016-12-23T12:29:07.701Z,7496
2016-12-23T12:30:07.131Z,7508
2016-12-23T12:31:07.599Z,7232
2016-12-23T12:32:07.816Z,7820
2016-12-23T12:33:07.948Z,8572
2016-12-23T12:34:08.085Z,8160
2016-12-23T12:35:08.514Z,8892
2016-12-23T12:36:07.829Z,8792
2016-12-23T12:37:07.375Z,9600
2016-12-23T12:38:07.603Z,9476
2016-12-23T12:39:07.889Z,8588
2016-12-23T12:40:08.041Z,9424
2016-12-23T12:41:08.169Z,11140
2016-12-23T12:42:08.644Z,11896
2016-12-23T12:43:08.369Z,11524
2016-12-23T12:44:08.732Z,11664
2016-12-23T12:45:07.685Z,10160
2016-12-23T12:46:07.730Z,9568
2016-12-23T12:47:08.070Z,8848
2016-12-23T12:48:07.859Z,9168
2016-12-23T12:49:08.210Z,8852
2016-12-23T12:50:07.775Z,9464
2016-12-23T12:51:07.674Z,9976
2016-12-23T12:52:07.853Z,10204
2016-12-23T12:53:08.255Z,9016
2016-12-23T12:54:08.457Z,8900
2016-12-23T12:55:10.954Z,8288
2016-12-23T12:56:08.357Z,7612
2016-12-23T12:57:07.976Z,7968
2016-12-23T12:58:08.764Z,7604
2016-12-23T12:59:07.906Z,7956
2016-12-23T13:00:07.911Z,7604
2016-12-23T13:01:08.284Z,8328
2016-12-23T13:02:07.700Z,8268
2016-12-23T13:03:07.830Z,7532
2016-12-23T13:04:08.232Z,7536
2016-12-23T13:05:08.329Z,7328
2016-12-23T13:06:08.706Z,7288
2016-12-23T13:07:08.245Z,7324
2016-12-23T13:08:08.863Z,7612
2016-12-23T13:09:08.296Z,8100
2016-12-23T13:10:08.461Z,8472
2016-12-23T13:11:08.298Z,7520
2016-12-23T13:12:07.521Z,6780
2016-12-23T13:13:07.936Z,6456
2016-12-23T13:14:08.461Z,6176
2016-12-23T13:15:08.470Z,5748
2016-12-23T13:16:08.421Z,5848
2016-12-23T13:17:08.610Z,5648
2016-12-23T13:18:08.575Z,5112
2016-12-23T13:19:08.406Z,4568
2016-12-23T13:20:08.597Z,4584
2016-12-23T13:21:08.363Z,5144
2016-12-23T13:22:08.648Z,4416
2016-12-23T13:23:08.176Z,4124
2016-12-23T13:24:08.490Z,4324
2016-12-23T13:25:08.162Z,4312
2016-12-23T13:26:08.129Z,4816
2016-12-23T13:27:07.898Z,5336
2016-12-23T13:28:08.287Z,5176
2016-12-23T13:29:08.772Z,4628
2016-12-23T13:30:08.112Z,4760
2016-12-23T13:31:08.857Z,4836
2016-12-23T13:32:08.524Z,5248
2016-12-23T13:33:09.029Z,4684
2016-12-23T13:34:09.055Z,4912
2016-12-23T13:35:08.237Z,5096
2016-12-23T13:36:09.296Z,4980
2016-12-23T13:37:08.361Z,5068
2016-12-23T13:38:09.025Z,4664
2016-12-23T13:39:08.395Z,4552
2016-12-23T13:40:09.113Z,4124
2016-12-23T13:41:08.494Z,3720
2016-12-23T13:42:08.738Z,3800
2016-12-23T13:43:08.730Z,3412
2016-12-23T13:44:08.468Z,3256
2016-12-23T13:45:08.097Z,3384
2016-12-23T13:46:08.316Z,3236
2016-12-23T13:47:08.126Z,3116
2016-12-23T13:48:09.436Z,3100
2016-12-23T13:49:08.613Z,3088
2016-12-23T13:50:08.156Z,3016
2016-12-23T13:51:08.730Z,2936
2016-12-23T13:52:08.406Z,2880
2016-12-23T13:53:09.330Z,2764
2016-12-23T13:54:08.697Z,2708
2016-12-23T13:55:08.618Z,2660
2016-12-23T13:56:08.416Z,2692
2016-12-23T13:57:09.356Z,2732
2016-12-23T13:58:08.421Z,2720
2016-12-23T13:59:08.694Z,2672
2016-12-23T14:00:09.128Z,2644
2016-12-23T14:01:08.758Z,2704
2016-12-23T14:02:08.562Z,2704
2016-12-23T14:03:09.760Z,2684
2016-12-23T14:04:09.072Z,2660
2016-12-23T14:05:08.546Z,2668
2016-12-23T14:06:09.198Z,2664